Santo Antonio de Posse, Brazil
Current Conditions -  °F | °C
As of 4:00 PM on Saturday 20 Dec 2014 (Local Time) from SBKP Reporting Station
Broken Clouds Broken Clouds  
Wind Chill: 84°   Ceiling: 4000
Heat Index: 87°   Visibility: 6mi
Dew Point: 68°   Wind: 10mph
Humidity: 58%   Direction: 360°N
Pressure: 29.88"   Gusts: NA
Location:  22.61°S, 46.92°W
Report Text: SBKP 201800Z 36009KT 320V030 9999 BKN040 29/20 Q1012
Loading
Personal Weather Stations






























Interactive Weather Map New forecast layout! Learn more

10-Day Weather Forecast

Advertisements
Track Severe Weather on mobile